Time;durP1;ratioP1;P1;durP2;ratioP2;P2;SDS_P1;SDS_P2;PMS_P1;PMS_P2;Temp;Humidity;BMP_temperature;BMP_pressure;BME280_temperature;BME280_humidity;BME280_pressure;Samples;Min_cycle;Max_cycle;Signal;HPM_P1;HPM_P2
2024/02/19 00:01:02;;;;;;;0.20;0.17;;;;;;;7.65;100.00;98174.13;5031355;28;20056;-60
2024/02/19 00:03:28;;;;;;;0.38;0.20;;;;;;;7.64;100.00;98177.03;5022788;28;20128;-61
2024/02/19 00:05:55;;;;;;;0.10;0.10;;;;;;;7.62;100.00;98181.78;5029425;28;20096;-61
2024/02/19 00:08:22;;;;;;;0.20;0.15;;;;;;;7.68;100.00;98187.16;5016644;28;20064;-61
2024/02/19 00:10:49;;;;;;;0.10;0.10;;;;;;;7.72;100.00;98178.66;5028311;28;20129;-60
2024/02/19 00:13:15;;;;;;;0.00;0.00;;;;;;;7.70;100.00;98188.81;5027614;28;20045;-60
2024/02/19 00:15:42;;;;;;;0.55;0.25;;;;;;;7.70;100.00;98197.72;5021488;28;20049;-61
2024/02/19 00:18:09;;;;;;;0.40;0.28;;;;;;;7.68;100.00;98184.44;5023698;28;20041;-60
2024/02/19 00:20:36;;;;;;;0.20;0.20;;;;;;;7.63;100.00;98197.75;5027621;28;20531;-61
2024/02/19 00:23:03;;;;;;;0.20;0.20;;;;;;;7.61;100.00;98199.00;5026283;28;20040;-60
2024/02/19 00:25:30;;;;;;;0.45;0.30;;;;;;;7.65;100.00;98197.53;5035924;28;20037;-61
2024/02/19 00:27:56;;;;;;;0.30;0.20;;;;;;;7.56;100.00;98210.44;5027483;28;20047;-61
2024/02/19 00:30:23;;;;;;;0.90;0.50;;;;;;;7.56;100.00;98202.34;5028582;28;20041;-61
2024/02/19 00:32:49;;;;;;;0.82;0.40;;;;;;;7.62;100.00;98198.78;5027420;28;20429;-60
2024/02/19 00:35:20;;;;;;;1.65;0.40;;;;;;;7.67;100.00;98198.97;5019756;28;20041;-61
2024/02/19 00:37:50;;;;;;;0.40;0.40;;;;;;;7.56;100.00;98210.44;5024973;28;20033;-61
2024/02/19 00:40:18;;;;;;;0.80;0.30;;;;;;;7.54;100.00;98204.41;5023075;28;20042;-61
2024/02/19 00:42:45;;;;;;;1.10;0.55;;;;;;;7.48;100.00;98205.28;5023844;28;20037;-60
2024/02/19 00:45:12;;;;;;;1.42;0.70;;;;;;;7.48;100.00;98197.19;5023273;28;20046;-61
2024/02/19 00:47:39;;;;;;;1.38;0.70;;;;;;;7.38;100.00;98184.97;5019779;28;20045;-60
2024/02/19 00:50:06;;;;;;;4.50;0.77;;;;;;;7.37;100.00;98180.63;5019757;28;20137;-61
2024/02/19 00:52:33;;;;;;;4.10;0.82;;;;;;;7.45;100.00;98168.81;5021689;28;20091;-60
2024/02/19 00:54:59;;;;;;;1.10;0.60;;;;;;;7.46;100.00;98172.31;5029478;28;20049;-61
2024/02/19 00:57:26;;;;;;;1.00;0.60;;;;;;;7.49;100.00;98194.25;5031693;28;20041;-61
2024/02/19 00:59:52;;;;;;;0.70;0.47;;;;;;;7.60;100.00;98200.88;5023724;28;20042;-61
2024/02/19 01:02:19;;;;;;;1.23;0.65;;;;;;;7.58;100.00;98200.25;5018573;28;20052;-60
2024/02/19 01:04:49;;;;;;;1.20;0.40;;;;;;;7.66;100.00;98204.56;5026011;28;20473;-61
2024/02/19 01:07:15;;;;;;;1.30;0.70;;;;;;;7.59;100.00;98218.09;5026360;28;20041;-60
2024/02/19 01:09:42;;;;;;;0.82;0.55;;;;;;;7.58;100.00;98212.91;5012001;28;20072;-59
2024/02/19 01:12:09;;;;;;;1.65;0.60;;;;;;;7.54;100.00;98215.19;5020288;28;20046;-60
2024/02/19 01:14:36;;;;;;;1.58;0.70;;;;;;;7.54;100.00;98212.50;5015098;28;20042;-60
2024/02/19 01:17:03;;;;;;;1.75;0.60;;;;;;;7.55;100.00;98220.38;5018800;28;20049;-60
2024/02/19 01:19:32;;;;;;;1.30;0.70;;;;;;;7.60;100.00;98214.38;5028067;28;20042;-60
2024/02/19 01:21:59;;;;;;;0.50;0.40;;;;;;;7.64;100.00;98209.38;5021187;28;20077;-60
2024/02/19 01:24:26;;;;;;;1.70;0.82;;;;;;;7.57;100.00;98224.72;5024916;28;20052;-61
2024/02/19 01:26:52;;;;;;;1.00;0.60;;;;;;;7.63;100.00;98222.00;5018323;28;20090;-61
2024/02/19 01:29:19;;;;;;;1.55;0.82;;;;;;;7.63;100.00;98222.00;5031098;28;20048;-61
2024/02/19 01:31:46;;;;;;;1.50;0.80;;;;;;;7.60;100.00;98224.31;5020420;28;20052;-61
2024/02/19 01:34:14;;;;;;;2.95;0.90;;;;;;;7.60;100.00;98214.38;5021733;28;20101;-61
2024/02/19 01:36:41;;;;;;;2.75;1.20;;;;;;;7.57;100.00;98212.09;5021914;28;20069;-60
2024/02/19 01:39:07;;;;;;;2.53;1.20;;;;;;;7.71;100.00;98207.50;5021014;28;20073;-60
2024/02/19 01:41:34;;;;;;;2.65;1.20;;;;;;;7.59;100.00;98198.41;5024042;28;20044;-61
2024/02/19 01:44:02;;;;;;;2.33;1.05;;;;;;;7.65;100.00;98206.47;5027084;28;20071;-60
2024/02/19 01:46:30;;;;;;;2.38;1.20;;;;;;;7.62;100.00;98206.88;5024830;28;20045;-61
2024/02/19 01:48:57;;;;;;;2.83;1.05;;;;;;;7.58;100.00;98211.03;5021905;28;20041;-61
2024/02/19 01:51:24;;;;;;;3.22;1.00;;;;;;;7.73;100.00;98205.41;5034904;28;20114;-61
2024/02/19 01:53:53;;;;;;;2.80;1.25;;;;;;;7.72;100.00;98202.91;5020980;28;20049;-61
2024/02/19 01:56:20;;;;;;;2.40;1.00;;;;;;;7.72;100.00;98198.34;5026687;28;20471;-61
2024/02/19 01:58:47;;;;;;;4.55;1.30;;;;;;;7.67;100.00;98196.28;5026675;28;20101;-60
2024/02/19 02:01:15;;;;;;;3.60;1.40;;;;;;;7.67;100.00;98200.88;5018072;28;20041;-61
2024/02/19 02:03:42;;;;;;;3.13;1.42;;;;;;;7.73;100.00;98209.94;5024466;28;20038;-61
2024/02/19 02:06:09;;;;;;;2.90;1.33;;;;;;;7.62;100.00;98212.28;5029741;28;20044;-61
2024/02/19 02:08:40;;;;;;;2.35;1.10;;;;;;;7.63;100.00;98213.91;5022535;28;20069;-61
2024/02/19 02:11:07;;;;;;;2.10;1.10;;;;;;;7.60;100.00;98218.91;5009682;28;20544;-61
2024/02/19 02:13:34;;;;;;;3.03;1.40;;;;;;;7.46;100.00;98228.91;5019594;28;20306;-61
2024/02/19 02:16:02;;;;;;;3.25;1.42;;;;;;;7.50;100.00;98224.75;5017234;28;20315;-60
2024/02/19 02:18:32;;;;;;;3.70;1.23;;;;;;;7.48;100.00;98226.84;5019275;28;20049;-61
2024/02/19 02:20:59;;;;;;;3.20;1.55;;;;;;;7.49;100.00;98228.47;5025883;28;20662;-60
2024/02/19 02:23:26;;;;;;;3.70;2.10;;;;;;;7.50;100.00;98224.75;5023622;28;20144;-60
2024/02/19 02:25:55;;;;;;;4.53;2.00;;;;;;;7.50;100.00;98228.28;5026088;28;20049;-60
2024/02/19 02:28:22;;;;;;;3.53;1.83;;;;;;;7.33;100.00;98219.78;5022012;28;20068;-60
2024/02/19 02:30:50;;;;;;;6.20;2.30;;;;;;;7.44;100.00;98217.50;5019523;28;20121;-59
2024/02/19 02:33:17;;;;;;;4.57;2.00;;;;;;;7.43;100.00;98213.97;5025710;28;20053;-60
2024/02/19 02:35:43;;;;;;;3.92;1.90;;;;;;;7.41;100.00;98216.06;5028247;28;20130;-59
2024/02/19 02:38:10;;;;;;;5.65;2.88;;;;;;;7.42;100.00;98209.63;5031734;28;20051;-60
2024/02/19 02:40:37;;;;;;;4.45;2.03;;;;;;;7.37;100.00;98209.44;5024688;28;20048;-60
2024/02/19 02:43:03;;;;;;;4.22;2.08;;;;;;;7.39;100.00;98207.34;5028362;28;21214;-59
2024/02/19 02:45:30;;;;;;;5.80;2.60;;;;;;;7.47;100.00;98208.97;5022344;28;20038;-59
2024/02/19 02:47:56;;;;;;;4.25;2.10;;;;;;;7.41;100.00;98200.72;5035386;28;20041;-59
2024/02/19 02:50:23;;;;;;;3.42;1.95;;;;;;;7.43;100.00;98203.19;5026288;28;20103;-60
2024/02/19 02:52:50;;;;;;;3.63;1.67;;;;;;;7.45;100.00;98214.63;5025732;28;20525;-60
2024/02/19 02:55:17;;;;;;;4.43;1.92;;;;;;;7.49;100.00;98209.63;5030735;28;20060;-61
2024/02/19 02:57:43;;;;;;;6.82;2.10;;;;;;;7.39;100.00;98210.06;5022690;28;20188;-61
2024/02/19 03:00:11;;;;;;;3.90;2.20;;;;;;;7.34;100.00;98205.28;5019943;28;20596;-60
2024/02/19 03:02:38;;;;;;;4.00;2.30;;;;;;;7.25;100.00;98215.47;5025021;28;20077;-60
2024/02/19 03:05:04;;;;;;;6.60;2.60;;;;;;;7.25;100.00;98215.47;5021597;28;20100;-61
2024/02/19 03:07:31;;;;;;;4.60;2.17;;;;;;;7.34;100.00;98217.94;5025466;28;20125;-61
2024/02/19 03:09:57;;;;;;;5.20;2.40;;;;;;;7.32;100.00;98226.22;5027531;28;20033;-60
2024/02/19 03:12:24;;;;;;;5.22;2.25;;;;;;;7.30;100.00;98225.63;5033032;28;20059;-60
2024/02/19 03:14:50;;;;;;;5.45;2.80;;;;;;;7.36;100.00;98229.31;5017975;28;20045;-61
2024/02/19 03:17:17;;;;;;;7.50;2.83;;;;;;;7.31;100.00;98223.75;5031230;28;20052;-61
2024/02/19 03:19:44;;;;;;;6.65;3.65;;;;;;;7.40;100.00;98236.78;5034409;28;20048;-60
2024/02/19 03:22:11;;;;;;;7.88;2.67;;;;;;;7.40;100.00;98228.69;5024938;28;20056;-60
2024/02/19 03:24:38;;;;;;;5.22;2.85;;;;;;;7.41;100.00;98221.47;5026137;28;20045;-60
2024/02/19 03:27:04;;;;;;;6.05;3.15;;;;;;;7.35;100.00;98217.72;5023434;28;20692;-60
2024/02/19 03:29:31;;;;;;;4.40;2.70;;;;;;;7.49;100.00;98223.91;5030970;28;20133;-61
2024/02/19 03:31:58;;;;;;;4.65;2.63;;;;;;;7.50;100.00;98219.34;5025104;28;20045;-61
2024/02/19 03:34:24;;;;;;;4.93;2.78;;;;;;;7.45;100.00;98217.31;5023434;28;20034;-59
2024/02/19 03:36:51;;;;;;;6.32;2.50;;;;;;;7.44;100.00;98228.28;5034435;28;20632;-60
2024/02/19 03:39:18;;;;;;;4.75;2.45;;;;;;;7.40;100.00;98215.22;5025582;28;20050;-60
2024/02/19 03:41:44;;;;;;;5.05;2.88;;;;;;;7.35;100.00;98224.97;5025723;28;20049;-59
2024/02/19 03:44:11;;;;;;;5.70;2.63;;;;;;;7.37;100.00;98225.63;5030399;28;20156;-60
2024/02/19 03:46:38;;;;;;;6.70;2.60;;;;;;;7.35;100.00;98231.22;5027462;28;20055;-60
2024/02/19 03:49:04;;;;;;;4.90;2.42;;;;;;;7.35;100.00;98231.22;5029972;28;20491;-60
2024/02/19 03:51:31;;;;;;;4.10;2.08;;;;;;;7.35;100.00;98238.44;5028724;28;20045;-60
2024/02/19 03:53:57;;;;;;;3.85;2.20;;;;;;;7.39;100.00;98245.91;5024916;28;20405;-60
2024/02/19 03:56:24;;;;;;;3.80;1.90;;;;;;;7.42;100.00;98240.09;5026423;28;20069;-60
2024/02/19 03:58:51;;;;;;;5.03;2.67;;;;;;;7.45;100.00;98238.03;5018215;28;20686;-59
2024/02/19 04:01:18;;;;;;;5.15;2.63;;;;;;;7.39;100.00;98248.63;5019780;28;20080;-59
2024/02/19 04:03:44;;;;;;;4.68;2.30;;;;;;;7.50;100.00;98240.91;5020219;28;20049;-60
2024/02/19 04:06:11;;;;;;;4.57;2.38;;;;;;;7.49;100.00;98234.69;5025410;28;20049;-59
2024/02/19 04:08:40;;;;;;;4.80;2.30;;;;;;;7.44;100.00;98236.38;5028194;28;20048;-59
2024/02/19 04:11:06;;;;;;;5.65;2.88;;;;;;;7.44;100.00;98239.06;5029348;28;20052;-59
2024/02/19 04:13:33;;;;;;;3.65;1.90;;;;;;;7.47;100.00;98235.94;5020608;28;20111;-59
2024/02/19 04:15:59;;;;;;;3.78;1.92;;;;;;;7.42;100.00;98242.78;5011341;28;20050;-59
2024/02/19 04:18:26;;;;;;;4.30;2.40;;;;;;;7.42;100.00;98242.78;5034926;28;20041;-59
2024/02/19 04:20:52;;;;;;;5.30;2.78;;;;;;;7.37;100.00;98234.50;5027572;28;20041;-59
2024/02/19 04:23:19;;;;;;;6.72;3.25;;;;;;;7.33;100.00;98235.97;5022992;28;20588;-59
2024/02/19 04:25:47;;;;;;;5.80;3.35;;;;;;;7.27;100.00;98232.22;5022504;28;20045;-60
2024/02/19 04:28:13;;;;;;;6.47;3.40;;;;;;;7.20;100.00;98244.06;5017028;28;20559;-59
2024/02/19 04:30:40;;;;;;;6.93;3.05;;;;;;;7.20;100.00;98241.38;5027925;28;20053;-61
2024/02/19 04:33:06;;;;;;;6.05;3.20;;;;;;;7.16;100.00;98232.88;5019019;28;20049;-60
2024/02/19 04:35:33;;;;;;;8.27;3.63;;;;;;;7.16;100.00;98246.34;5031625;28;20073;-60
2024/02/19 04:38:00;;;;;;;7.45;3.85;;;;;;;7.09;100.00;98254.44;5028597;28;20123;-60
2024/02/19 04:40:26;;;;;;;6.75;4.28;;;;;;;7.10;100.00;98245.31;5025197;28;20060;-60
2024/02/19 04:42:53;;;;;;;5.70;3.08;;;;;;;7.07;100.00;98253.00;5031981;28;20045;-60
2024/02/19 04:45:20;;;;;;;8.85;3.45;;;;;;;7.01;100.00;98258.16;5026829;28;20695;-60
2024/02/19 04:47:46;;;;;;;8.18;4.13;;;;;;;7.01;100.00;98252.75;5030855;28;20049;-61
2024/02/19 04:50:13;;;;;;;7.80;3.60;;;;;;;6.95;100.00;98256.28;5028338;28;20098;-60
2024/02/19 04:52:40;;;;;;;8.55;3.65;;;;;;;6.93;100.00;98257.53;5027525;28;20069;-60
2024/02/19 04:55:07;;;;;;;7.05;3.85;;;;;;;6.95;100.00;98258.16;5024825;28;20046;-60
2024/02/19 04:57:34;;;;;;;12.65;3.28;;;;;;;6.88;100.00;98266.22;5017331;28;20456;-60
2024/02/19 05:00:00;;;;;;;7.20;3.50;;;;;;;6.85;100.00;98263.94;5025000;28;20045;-60
2024/02/19 05:02:27;;;;;;;7.07;3.55;;;;;;;6.83;100.00;98264.16;5032532;28;20067;-60
2024/02/19 05:04:53;;;;;;;8.57;3.40;;;;;;;6.78;100.00;98266.63;5024359;28;20696;-60
2024/02/19 05:07:20;;;;;;;6.55;3.70;;;;;;;6.75;100.00;98270.56;5029877;28;20041;-61
2024/02/19 05:09:47;;;;;;;6.97;3.63;;;;;;;6.81;100.00;98273.47;5019158;28;20042;-61
2024/02/19 05:12:14;;;;;;;6.35;3.70;;;;;;;6.85;100.00;98266.63;5022240;28;20055;-60
2024/02/19 05:14:40;;;;;;;11.68;4.68;;;;;;;6.86;100.00;98271.00;5024198;28;20043;-61
2024/02/19 05:17:07;;;;;;;7.80;3.75;;;;;;;6.91;100.00;98279.28;5025577;28;20049;-61
2024/02/19 05:19:34;;;;;;;9.80;3.83;;;;;;;6.95;100.00;98277.00;5014360;28;20065;-59
2024/02/19 05:22:01;;;;;;;9.50;3.90;;;;;;;6.97;100.00;98277.63;5019446;28;20769;-61
2024/02/19 05:24:28;;;;;;;7.57;3.90;;;;;;;7.01;100.00;98273.50;5019090;28;20048;-60
2024/02/19 05:26:54;;;;;;;9.07;3.63;;;;;;;6.99;100.00;98281.78;5026061;28;20466;-61
2024/02/19 05:29:22;;;;;;;8.52;3.85;;;;;;;7.00;100.00;98280.72;5022851;28;20037;-60
2024/02/19 05:31:51;;;;;;;7.05;3.50;;;;;;;7.08;100.00;98289.66;5024979;28;20412;-61
2024/02/19 05:34:18;;;;;;;8.63;3.90;;;;;;;7.06;100.00;98292.53;5037664;28;20056;-61
2024/02/19 05:36:45;;;;;;;9.85;3.92;;;;;;;7.04;100.00;98289.22;5022346;28;20107;-61
2024/02/19 05:39:11;;;;;;;6.72;3.50;;;;;;;7.03;100.00;98299.19;5019480;28;20417;-60
2024/02/19 05:41:38;;;;;;;9.20;3.85;;;;;;;7.10;100.00;98293.78;5023708;28;20037;-61
2024/02/19 05:44:05;;;;;;;6.60;3.75;;;;;;;7.03;100.00;98290.25;5021009;28;20038;-61
2024/02/19 05:46:33;;;;;;;8.07;3.60;;;;;;;7.08;100.00;98306.63;5028169;28;20116;-61
2024/02/19 05:48:59;;;;;;;8.30;4.20;;;;;;;7.14;100.00;98292.34;5032964;28;20037;-60
2024/02/19 05:51:27;;;;;;;5.82;3.53;;;;;;;7.01;100.00;98298.53;5024338;28;20041;-60
2024/02/19 05:53:56;;;;;;;6.82;3.42;;;;;;;7.06;100.00;98297.94;5022483;28;20613;-61
2024/02/19 05:56:24;;;;;;;7.90;3.58;;;;;;;7.00;100.00;98302.28;5030210;28;20501;-61
2024/02/19 05:58:52;;;;;;;7.60;3.58;;;;;;;7.01;100.00;98295.03;5020516;28;20547;-61
2024/02/19 06:01:18;;;;;;;8.57;3.47;;;;;;;6.94;100.00;98294.19;5027751;28;20048;-61
2024/02/19 06:03:45;;;;;;;7.32;3.67;;;;;;;6.94;100.00;98302.25;5024029;28;20049;-60
2024/02/19 06:06:12;;;;;;;8.25;4.00;;;;;;;6.90;100.00;98301.84;5023456;28;20041;-60
2024/02/19 06:08:39;;;;;;;10.02;3.60;;;;;;;6.92;100.00;98302.47;5021985;28;20142;-66
2024/02/19 06:11:05;;;;;;;7.28;2.88;;;;;;;6.95;100.00;98301.22;5024530;28;20534;-64
2024/02/19 06:13:32;;;;;;;6.53;4.13;;;;;;;6.84;100.00;98311.56;5012740;28;20045;-64
2024/02/19 06:15:59;;;;;;;8.60;4.43;;;;;;;6.86;100.00;98317.56;5026995;28;20124;-65
2024/02/19 06:18:25;;;;;;;6.95;3.72;;;;;;;6.84;100.00;98311.56;5023926;28;20749;-64
2024/02/19 06:20:52;;;;;;;8.77;4.28;;;;;;;6.83;100.00;98315.31;5028926;28;20253;-65
2024/02/19 06:23:19;;;;;;;8.85;3.63;;;;;;;6.81;100.00;98317.34;5018138;28;20045;-65
2024/02/19 06:25:45;;;;;;;11.25;3.72;;;;;;;6.80;100.00;98336.41;5019915;28;20042;-65
2024/02/19 06:28:13;;;;;;;6.43;3.13;;;;;;;6.78;100.00;98331.22;5019163;28;20049;-64
2024/02/19 06:30:39;;;;;;;7.50;3.58;;;;;;;6.74;100.00;98336.19;5024967;28;20046;-65
2024/02/19 06:33:06;;;;;;;7.88;3.60;;;;;;;6.73;100.00;98333.69;5018127;28;20053;-65
2024/02/19 06:35:33;;;;;;;7.47;3.35;;;;;;;6.74;100.00;98338.03;5031806;28;20037;-65
2024/02/19 06:38:00;;;;;;;7.85;3.67;;;;;;;6.74;100.00;98340.72;5021666;28;20079;-65
2024/02/19 06:40:26;;;;;;;6.68;3.35;;;;;;;6.73;100.00;98344.47;5025447;28;20041;-65
2024/02/19 06:42:53;;;;;;;7.50;2.90;;;;;;;6.72;100.00;98345.50;5024071;28;20409;-65
2024/02/19 06:45:21;;;;;;;6.10;2.50;;;;;;;6.69;100.00;98346.75;5032439;28;20683;-65
2024/02/19 06:47:48;;;;;;;6.63;2.60;;;;;;;6.63;100.00;98345.69;5025971;28;20045;-64
2024/02/19 06:50:14;;;;;;;6.95;2.40;;;;;;;6.60;100.00;98335.31;5028751;28;20260;-65
2024/02/19 06:52:45;;;;;;;6.70;2.15;;;;;;;6.55;100.00;98345.03;5020615;28;20045;-65
2024/02/19 06:55:14;;;;;;;4.65;2.15;;;;;;;6.54;100.00;98335.28;5019265;28;20045;-65
2024/02/19 06:57:41;;;;;;;5.45;1.90;;;;;;;6.49;100.00;98349.38;5018911;28;20052;-65
2024/02/19 07:00:09;;;;;;;6.07;2.13;;;;;;;6.44;100.00;98346.44;5033690;28;20065;-65
2024/02/19 07:02:37;;;;;;;3.50;1.50;;;;;;;6.46;100.00;98339.00;5030482;28;20052;-65
2024/02/19 07:05:05;;;;;;;7.05;1.90;;;;;;;6.43;100.00;98355.53;5026267;28;20544;-65
2024/02/19 07:07:33;;;;;;;4.95;1.58;;;;;;;6.49;100.00;98357.44;5021495;28;20038;-65
2024/02/19 07:10:00;;;;;;;4.97;1.85;;;;;;;6.47;100.00;98364.88;5024497;28;20044;-65
2024/02/19 07:12:27;;;;;;;5.75;1.70;;;;;;;6.43;100.00;98369.00;5036334;28;20404;-65
2024/02/19 07:14:55;;;;;;;5.30;1.55;;;;;;;6.45;100.00;98373.13;5033584;28;20060;-65
2024/02/19 07:17:22;;;;;;;4.28;1.40;;;;;;;6.48;100.00;98366.53;5039498;28;20056;-65
2024/02/19 07:19:49;;;;;;;4.35;1.33;;;;;;;6.60;100.00;98383.75;5038049;28;20099;-65
2024/02/19 07:22:16;;;;;;;5.82;1.52;;;;;;;6.57;100.00;98370.72;5033349;28;20041;-65
2024/02/19 07:24:43;;;;;;;6.35;1.23;;;;;;;6.59;100.00;98375.88;5034167;28;20392;-66
2024/02/19 07:27:09;;;;;;;5.55;1.60;;;;;;;6.58;100.00;98367.00;5038958;28;20037;-65
2024/02/19 07:29:36;;;;;;;6.38;1.50;;;;;;;6.61;100.00;98376.53;5041418;28;20052;-65
2024/02/19 07:32:03;;;;;;;2.85;1.27;;;;;;;6.59;100.00;98376.72;5039378;28;20521;-65
2024/02/19 07:34:29;;;;;;;5.25;1.60;;;;;;;6.62;100.00;98383.56;5031838;28;20758;-65
2024/02/19 07:36:56;;;;;;;4.20;1.40;;;;;;;6.64;100.00;98389.59;5036814;28;20041;-65
2024/02/19 07:39:22;;;;;;;4.47;1.50;;;;;;;6.68;100.00;98398.91;5032793;28;20045;-65
2024/02/19 07:41:49;;;;;;;3.00;1.30;;;;;;;6.73;100.00;98404.53;5033555;28;20626;-65
2024/02/19 07:44:15;;;;;;;3.83;1.00;;;;;;;6.81;100.00;98408.88;5035403;28;20508;-65
2024/02/19 07:46:42;;;;;;;2.30;1.20;;;;;;;6.87;100.00;98405.41;5038347;28;20041;-65
2024/02/19 07:49:08;;;;;;;2.22;0.70;;;;;;;6.89;100.00;98414.09;5035731;28;20042;-65
2024/02/19 07:51:35;;;;;;;2.63;1.08;;;;;;;6.84;100.00;98418.41;5024678;28;20497;-65
2024/02/19 07:54:02;;;;;;;5.10;1.20;;;;;;;6.81;100.00;98414.28;5027777;28;20116;-65
2024/02/19 07:56:29;;;;;;;3.45;0.90;;;;;;;6.78;100.00;98421.94;5030608;28;20037;-68
2024/02/19 07:58:55;;;;;;;2.53;0.80;;;;;;;6.89;100.00;98424.88;5023605;28;20092;-65
2024/02/19 08:01:22;;;;;;;3.60;0.90;;;;;;;6.95;100.00;98425.09;5030483;28;20048;-67
2024/02/19 08:03:48;;;;;;;2.38;1.00;;;;;;;6.84;100.00;98435.41;5028784;28;20053;-66
2024/02/19 08:06:15;;;;;;;2.78;0.98;;;;;;;6.81;100.00;98435.00;5029233;28;20051;-67
2024/02/19 08:08:43;;;;;;;2.97;0.90;;;;;;;6.98;100.00;98435.47;5021454;28;20468;-66
2024/02/19 08:11:09;;;;;;;3.30;0.90;;;;;;;7.01;100.00;98440.44;5032290;28;20041;-65
2024/02/19 08:13:36;;;;;;;2.35;0.82;;;;;;;6.93;100.00;98448.69;5030433;28;20801;-65
2024/02/19 08:16:04;;;;;;;1.35;0.70;;;;;;;6.87;100.00;98440.41;5027660;28;20053;-66
2024/02/19 08:18:31;;;;;;;2.38;0.82;;;;;;;7.11;100.00;98448.16;5023494;28;20038;-65
2024/02/19 08:20:57;;;;;;;5.35;1.10;;;;;;;7.18;100.00;98454.34;5023787;28;20041;-66
2024/02/19 08:23:24;;;;;;;2.22;0.90;;;;;;;7.20;100.00;98459.56;5030077;28;20116;-66
2024/02/19 08:25:50;;;;;;;4.93;1.00;;;;;;;7.09;100.00;98469.88;5021314;28;20033;-65
2024/02/19 08:28:17;;;;;;;2.70;1.10;;;;;;;7.20;100.00;98460.38;5027613;28;20095;-66
2024/02/19 08:30:44;;;;;;;2.13;0.95;;;;;;;7.14;100.00;98467.41;5026903;28;20079;-65
2024/02/19 08:33:11;;;;;;;1.95;0.70;;;;;;;7.18;100.00;98467.00;5022470;28;20059;-66
2024/02/19 08:35:37;;;;;;;3.33;1.13;;;;;;;7.26;100.00;98480.31;5021571;28;20569;-65
2024/02/19 08:38:05;;;;;;;4.53;1.25;;;;;;;7.30;100.00;98481.56;5016199;28;20408;-66
2024/02/19 08:40:31;;;;;;;2.45;0.88;;;;;;;7.19;100.00;98477.56;5019389;28;20124;-66
2024/02/19 08:42:58;;;;;;;9.02;1.38;;;;;;;7.36;100.00;98480.72;5012039;28;20057;-65
2024/02/19 08:45:25;;;;;;;1.98;0.65;;;;;;;7.47;100.00;98482.00;5021722;28;20033;-66
2024/02/19 08:47:59;;;;;;;1.83;0.80;;;;;;;7.53;100.00;98489.25;5018354;28;20052;-66
2024/02/19 08:50:26;;;;;;;4.00;1.60;;;;;;;7.32;100.00;98484.03;5027151;28;20137;-66
2024/02/19 08:52:53;;;;;;;11.48;6.28;;;;;;;7.26;100.00;98488.38;5024687;28;20048;-66
2024/02/19 08:55:19;;;;;;;3.30;1.02;;;;;;;7.16;100.00;98484.19;5021183;28;20120;-66
2024/02/19 08:57:46;;;;;;;2.08;0.70;;;;;;;7.28;100.00;98487.16;5017924;28;20045;-66
2024/02/19 09:00:13;;;;;;;3.70;0.90;;;;;;;7.41;100.00;98486.34;5021024;28;20096;-66
2024/02/19 09:02:42;;;;;;;4.10;1.00;;;;;;;7.46;100.00;98482.19;5014327;28;20107;-66
2024/02/19 09:05:12;;;;;;;4.28;1.33;;;;;;;7.36;100.00;98479.88;5022342;28;20047;-66
2024/02/19 09:07:38;;;;;;;6.38;1.67;;;;;;;7.46;100.00;98488.44;5020521;28;20456;-65
2024/02/19 09:10:05;;;;;;;4.13;1.23;;;;;;;7.55;100.00;98491.75;5024680;28;20037;-66
2024/02/19 09:12:32;;;;;;;4.75;1.08;;;;;;;7.75;100.00;98493.66;5022445;28;20514;-66
2024/02/19 09:14:59;;;;;;;3.25;1.50;;;;;;;7.61;100.00;98496.34;5017680;28;20045;-66
2024/02/19 09:17:26;;;;;;;5.22;1.63;;;;;;;7.60;100.00;98489.28;5021286;28;20631;-66
2024/02/19 09:19:52;;;;;;;4.55;1.10;;;;;;;7.64;100.00;98498.63;5025095;28;20041;-66
2024/02/19 09:22:19;;;;;;;2.50;1.35;;;;;;;7.57;100.00;98494.25;5023013;28;20527;-66
2024/02/19 09:24:47;;;;;;;5.85;1.52;;;;;;;7.65;100.00;98494.06;5008342;28;20065;-66
2024/02/19 09:27:14;;;;;;;4.22;1.20;;;;;;;7.83;100.00;98493.47;5017614;28;20049;-66
2024/02/19 09:29:42;;;;;;;5.45;1.00;;;;;;;7.57;100.00;98496.94;5020512;28;20119;-66
2024/02/19 09:32:08;;;;;;;3.42;1.20;;;;;;;7.51;100.00;98491.34;5019015;28;20738;-66
2024/02/19 09:34:35;;;;;;;6.93;1.02;;;;;;;7.57;100.00;98497.78;5020460;28;20049;-65
2024/02/19 09:37:02;;;;;;;4.15;1.20;;;;;;;7.52;100.00;98495.69;5010855;28;20600;-67
2024/02/19 09:39:29;;;;;;;6.22;2.58;;;;;;;7.73;100.00;98495.72;5023222;28;20115;-66
2024/02/19 09:41:56;;;;;;;10.50;2.63;;;;;;;7.80;100.00;98496.56;5018082;28;20052;-67
2024/02/19 09:44:23;;;;;;;2.33;0.90;;;;;;;7.72;100.00;98503.00;5015206;28;20041;-67
2024/02/19 09:46:54;;;;;;;6.28;2.17;;;;;;;7.69;100.00;98506.09;5019830;28;20037;-66
2024/02/19 09:49:26;;;;;;;;;;;;;;;7.90;100.00;98509.63;5022048;28;20052;-67
2024/02/19 09:51:55;;;;;;;4.40;1.70;;;;;;;7.94;100.00;98521.69;5019114;28;19951;-67
2024/02/19 09:54:23;;;;;;;2.22;1.00;;;;;;;7.93;100.00;98518.13;5023917;28;20068;-66
2024/02/19 09:56:51;;;;;;;3.40;1.30;;;;;;;7.92;100.00;98518.34;5019890;28;20037;-68
2024/02/19 09:59:17;;;;;;;9.13;1.30;;;;;;;7.73;100.00;98530.75;5016473;28;20044;-64
2024/02/19 10:01:44;;;;;;;5.63;1.63;;;;;;;7.65;100.00;98531.78;5016462;28;20783;-64
2024/02/19 10:04:14;;;;;;;8.38;1.63;;;;;;;7.73;100.00;98536.16;5020914;28;21601;-63
2024/02/19 10:06:42;;;;;;;5.68;1.33;;;;;;;7.64;100.00;98541.75;5021631;28;20038;-63
2024/02/19 10:09:11;;;;;;;4.60;1.35;;;;;;;7.59;100.00;98538.00;5022248;28;20040;-62
2024/02/19 10:11:38;;;;;;;7.03;2.45;;;;;;;7.55;100.00;98537.56;5024952;28;20168;-64
2024/02/19 10:14:05;;;;;;;5.93;1.27;;;;;;;7.40;100.00;98537.72;5020225;28;20044;-63
2024/02/19 10:16:32;;;;;;;3.78;1.08;;;;;;;7.59;100.00;98541.50;5018952;28;20030;-64
2024/02/19 10:19:06;;;;;;;5.80;1.20;;;;;;;7.59;100.00;98555.00;5014575;28;20049;-63
2024/02/19 10:21:33;;;;;;;4.72;1.80;;;;;;;7.67;100.00;98549.41;5021353;28;20049;-63
2024/02/19 10:24:00;;;;;;;3.65;0.88;;;;;;;7.80;100.00;98548.63;5018754;28;20052;-64
2024/02/19 10:26:26;;;;;;;4.50;1.15;;;;;;;7.93;100.00;98547.81;5022130;28;20049;-64
2024/02/19 10:28:54;;;;;;;6.20;1.33;;;;;;;7.93;100.00;98547.00;5018545;28;20112;-62
2024/02/19 10:31:21;;;;;;;3.05;1.20;;;;;;;7.90;100.00;98552.78;5015049;28;20044;-64
2024/02/19 10:33:48;;;;;;;4.13;0.95;;;;;;;8.02;100.00;98553.84;5019333;28;20083;-64
2024/02/19 10:36:19;;;;;;;4.88;1.52;;;;;;;7.80;100.00;98561.28;5024778;28;20041;-65
2024/02/19 10:38:46;;;;;;;3.63;1.55;;;;;;;7.83;100.00;98560.88;5024153;28;20041;-64
2024/02/19 10:41:13;;;;;;;6.35;1.77;;;;;;;7.85;100.00;98558.78;5017196;28;20209;-63
2024/02/19 10:43:40;;;;;;;5.40;1.70;;;;;;;7.69;100.00;98560.00;5020353;28;20041;-64
2024/02/19 10:46:07;;;;;;;6.68;1.52;;;;;;;7.62;100.00;98554.59;5019938;28;20041;-63
2024/02/19 10:48:34;;;;;;;5.03;1.25;;;;;;;7.61;100.00;98560.19;5014481;28;20092;-63
2024/02/19 10:51:04;;;;;;;7.43;2.30;;;;;;;7.59;100.00;98546.91;5019675;28;21235;-64
2024/02/19 10:53:31;;;;;;;4.30;1.10;;;;;;;7.67;100.00;98549.41;5019965;28;20128;-63
2024/02/19 10:56:17;;;;;;;8.38;2.03;;;;;;;7.53;100.00;98550.44;5022826;28;20774;-63
2024/02/19 10:58:59;;;;;;;4.13;0.70;;;;;;;7.56;100.00;98541.94;5025266;28;20124;-64
2024/02/19 11:01:48;;;;;;;6.20;1.90;;;;;;;7.62;100.00;98541.13;5022281;28;20052;-64
2024/02/19 11:04:16;;;;;;;5.75;1.85;;;;;;;7.68;100.00;98529.50;5019240;28;20058;-64
2024/02/19 11:06:56;;;;;;;4.07;1.83;;;;;;;7.91;100.00;98527.47;5018902;28;20038;-64
2024/02/19 11:09:29;;;;;;;6.53;1.60;;;;;;;8.00;100.00;98523.53;5018677;28;20052;-64
2024/02/19 11:11:58;;;;;;;7.63;3.78;;;;;;;7.93;100.00;98515.44;5018919;28;20045;-63
2024/02/19 11:14:33;;;;;;;4.50;1.48;;;;;;;8.14;100.00;98518.16;5015788;28;20116;-64
2024/02/19 11:17:01;;;;;;;18.17;7.90;;;;;;;8.11;100.00;98519.38;5016340;28;20600;-64
2024/02/19 11:19:29;;;;;;;12.07;4.15;;;;;;;8.18;100.00;98503.19;5024713;28;20073;-64
2024/02/19 11:22:04;;;;;;;28.33;13.18;;;;;;;8.23;100.00;98506.13;5012837;28;20037;-62
2024/02/19 11:24:31;;;;;;;12.63;5.28;;;;;;;8.20;100.00;98504.66;5022957;28;20721;-63
2024/02/19 11:26:58;;;;;;;16.45;6.50;;;;;;;8.13;100.00;98494.91;5020687;28;20037;-64
2024/02/19 11:29:25;;;;;;;8.38;1.70;;;;;;;8.32;100.00;98494.06;5023309;28;20052;-64
2024/02/19 11:32:07;;;;;;;13.07;4.35;;;;;;;8.42;100.00;98484.72;5022007;28;20049;-64
2024/02/19 11:34:34;;;;;;;2.95;1.13;;;;;;;8.61;100.00;98480.34;5019384;28;20048;-63